sensor_id;sensor_type;location;lat;lon;timestamp;pressure;altitude;pressure_sealevel;temperature;humidity
24336;BME280;33098;52.400;16.880;2023-03-31T00:00:56;99740.61;;;9.85;100.00
24336;BME280;33098;52.400;16.880;2023-03-31T00:03:24;99739.73;;;9.86;100.00
24336;BME280;33098;52.400;16.880;2023-03-31T00:06:03;99738.89;;;9.90;100.00
24336;BME280;33098;52.400;16.880;2023-03-31T00:08:31;99737.54;;;9.89;100.00
24336;BME280;33098;52.400;16.880;2023-03-31T00:11:03;99727.00;;;9.84;100.00
24336;BME280;33098;52.400;16.880;2023-03-31T00:13:31;99729.12;;;9.84;100.00
24336;BME280;33098;52.400;16.880;2023-03-31T00:16:01;99730.96;;;9.81;100.00
24336;BME280;33098;52.400;16.880;2023-03-31T00:18:28;99730.94;;;9.77;100.00
24336;BME280;33098;52.400;16.880;2023-03-31T00:21:11;99728.94;;;9.74;100.00
24336;BME280;33098;52.400;16.880;2023-03-31T00:23:53;99721.79;;;9.78;100.00
24336;BME280;33098;52.400;16.880;2023-03-31T00:26:21;99722.56;;;9.76;100.00
24336;BME280;33098;52.400;16.880;2023-03-31T00:28:50;99720.27;;;9.74;100.00
24336;BME280;33098;52.400;16.880;2023-03-31T00:31:20;99719.17;;;9.74;100.00
24336;BME280;33098;52.400;16.880;2023-03-31T00:33:48;99719.52;;;9.76;100.00
24336;BME280;33098;52.400;16.880;2023-03-31T00:36:16;99724.80;;;9.75;100.00
24336;BME280;33098;52.400;16.880;2023-03-31T00:38:47;99728.22;;;9.74;100.00
24336;BME280;33098;52.400;16.880;2023-03-31T00:41:14;99725.98;;;9.75;100.00
24336;BME280;33098;52.400;16.880;2023-03-31T00:44:07;99717.19;;;9.75;100.00
24336;BME280;33098;52.400;16.880;2023-03-31T00:49:28;99718.38;;;9.67;100.00
24336;BME280;33098;52.400;16.880;2023-03-31T00:55:14;99728.95;;;9.59;100.00
24336;BME280;33098;52.400;16.880;2023-03-31T00:57:44;99721.92;;;9.62;100.00
24336;BME280;33098;52.400;16.880;2023-03-31T01:00:14;99717.31;;;9.67;100.00
24336;BME280;33098;52.400;16.880;2023-03-31T01:02:56;99712.65;;;9.70;100.00
24336;BME280;33098;52.400;16.880;2023-03-31T01:05:36;99704.11;;;9.66;100.00
24336;BME280;33098;52.400;16.880;2023-03-31T01:08:05;99714.40;;;9.59;100.00
24336;BME280;33098;52.400;16.880;2023-03-31T01:10:36;99715.52;;;9.51;100.00
24336;BME280;33098;52.400;16.880;2023-03-31T01:13:12;99712.66;;;9.45;100.00
24336;BME280;33098;52.400;16.880;2023-03-31T01:15:48;99706.39;;;9.37;100.00
24336;BME280;33098;52.400;16.880;2023-03-31T01:18:16;99702.17;;;9.37;100.00
24336;BME280;33098;52.400;16.880;2023-03-31T01:21:24;99704.04;;;9.31;100.00
24336;BME280;33098;52.400;16.880;2023-03-31T01:27:00;99693.68;;;9.30;100.00
24336;BME280;33098;52.400;16.880;2023-03-31T01:32:42;99701.02;;;9.36;100.00
24336;BME280;33098;52.400;16.880;2023-03-31T01:41:25;99687.26;;;9.43;100.00
24336;BME280;33098;52.400;16.880;2023-03-31T01:52:36;99678.46;;;9.37;100.00
24336;BME280;33098;52.400;16.880;2023-03-31T01:55:11;99673.38;;;9.36;100.00
24336;BME280;33098;52.400;16.880;2023-03-31T01:57:54;99674.90;;;9.35;100.00
24336;BME280;33098;52.400;16.880;2023-03-31T02:00:41;99674.50;;;9.41;100.00
24336;BME280;33098;52.400;16.880;2023-03-31T02:03:17;99670.60;;;9.40;100.00
24336;BME280;33098;52.400;16.880;2023-03-31T02:05:56;99674.10;;;9.40;100.00
24336;BME280;33098;52.400;16.880;2023-03-31T02:08:33;99670.13;;;9.37;100.00
24336;BME280;33098;52.400;16.880;2023-03-31T02:11:02;99667.62;;;9.37;100.00
24336;BME280;33098;52.400;16.880;2023-03-31T02:13:30;99663.80;;;9.38;100.00
24336;BME280;33098;52.400;16.880;2023-03-31T02:16:06;99668.30;;;9.33;100.00
24336;BME280;33098;52.400;16.880;2023-03-31T02:18:42;99667.08;;;9.28;100.00
24336;BME280;33098;52.400;16.880;2023-03-31T02:21:11;99661.92;;;9.25;100.00
24336;BME280;33098;52.400;16.880;2023-03-31T02:23:43;99660.32;;;9.25;100.00
24336;BME280;33098;52.400;16.880;2023-03-31T02:26:16;99653.41;;;9.29;100.00
24336;BME280;33098;52.400;16.880;2023-03-31T02:28:48;99653.63;;;9.28;100.00
24336;BME280;33098;52.400;16.880;2023-03-31T02:31:36;99649.70;;;9.29;100.00
24336;BME280;33098;52.400;16.880;2023-03-31T02:34:06;99648.17;;;9.30;100.00
24336;BME280;33098;52.400;16.880;2023-03-31T02:36:42;99645.81;;;9.33;100.00
24336;BME280;33098;52.400;16.880;2023-03-31T02:39:20;99645.06;;;9.33;100.00
24336;BME280;33098;52.400;16.880;2023-03-31T02:41:52;99645.67;;;9.35;100.00
24336;BME280;33098;52.400;16.880;2023-03-31T02:44:19;99643.33;;;9.36;100.00
24336;BME280;33098;52.400;16.880;2023-03-31T02:46:47;99635.36;;;9.39;100.00
24336;BME280;33098;52.400;16.880;2023-03-31T02:49:17;99636.89;;;9.38;100.00
24336;BME280;33098;52.400;16.880;2023-03-31T02:52:05;99634.95;;;9.38;100.00
24336;BME280;33098;52.400;16.880;2023-03-31T03:05:47;99614.52;;;9.39;100.00
24336;BME280;33098;52.400;16.880;2023-03-31T03:11:12;99609.70;;;9.35;100.00
24336;BME280;33098;52.400;16.880;2023-03-31T03:13:49;99609.03;;;9.37;100.00
24336;BME280;33098;52.400;16.880;2023-03-31T03:16:32;99603.64;;;9.36;100.00
24336;BME280;33098;52.400;16.880;2023-03-31T03:19:04;99604.42;;;9.37;100.00
24336;BME280;33098;52.400;16.880;2023-03-31T03:21:34;99603.32;;;9.39;100.00
24336;BME280;33098;52.400;16.880;2023-03-31T03:24:01;99607.11;;;9.41;100.00
24336;BME280;33098;52.400;16.880;2023-03-31T03:26:28;99604.72;;;9.40;100.00
24336;BME280;33098;52.400;16.880;2023-03-31T03:28:56;99600.60;;;9.40;100.00
24336;BME280;33098;52.400;16.880;2023-03-31T03:31:26;99601.41;;;9.41;100.00
24336;BME280;33098;52.400;16.880;2023-03-31T03:33:53;99603.54;;;9.39;100.00
24336;BME280;33098;52.400;16.880;2023-03-31T03:36:24;99599.45;;;9.37;100.00
24336;BME280;33098;52.400;16.880;2023-03-31T03:38:51;99596.52;;;9.40;100.00
24336;BME280;33098;52.400;16.880;2023-03-31T03:41:24;99598.00;;;9.47;100.00
24336;BME280;33098;52.400;16.880;2023-03-31T03:43:51;99595.12;;;9.48;100.00
24336;BME280;33098;52.400;16.880;2023-03-31T03:46:17;99592.77;;;9.48;100.00
24336;BME280;33098;52.400;16.880;2023-03-31T03:48:44;99590.66;;;9.44;100.00
24336;BME280;33098;52.400;16.880;2023-03-31T03:51:21;99593.83;;;9.44;100.00
24336;BME280;33098;52.400;16.880;2023-03-31T03:53:48;99590.70;;;9.48;100.00
24336;BME280;33098;52.400;16.880;2023-03-31T03:56:15;99592.95;;;9.52;100.00
24336;BME280;33098;52.400;16.880;2023-03-31T03:58:44;99590.27;;;9.57;100.00
24336;BME280;33098;52.400;16.880;2023-03-31T04:01:11;99588.45;;;9.55;100.00
24336;BME280;33098;52.400;16.880;2023-03-31T04:03:41;99583.70;;;9.53;100.00
24336;BME280;33098;52.400;16.880;2023-03-31T04:06:10;99580.98;;;9.52;100.00
24336;BME280;33098;52.400;16.880;2023-03-31T04:08:37;99578.47;;;9.50;100.00
24336;BME280;33098;52.400;16.880;2023-03-31T04:11:14;99576.06;;;9.49;100.00
24336;BME280;33098;52.400;16.880;2023-03-31T04:13:45;99576.84;;;9.46;100.00
24336;BME280;33098;52.400;16.880;2023-03-31T04:16:15;99577.09;;;9.47;100.00
24336;BME280;33098;52.400;16.880;2023-03-31T04:18:43;99574.63;;;9.45;100.00
24336;BME280;33098;52.400;16.880;2023-03-31T04:21:12;99569.48;;;9.49;100.00
24336;BME280;33098;52.400;16.880;2023-03-31T04:23:53;99568.16;;;9.53;100.00
24336;BME280;33098;52.400;16.880;2023-03-31T04:26:35;99564.52;;;9.55;100.00
24336;BME280;33098;52.400;16.880;2023-03-31T04:29:09;99562.85;;;9.56;100.00
24336;BME280;33098;52.400;16.880;2023-03-31T04:31:41;99560.61;;;9.56;100.00
24336;BME280;33098;52.400;16.880;2023-03-31T04:34:14;99557.05;;;9.60;100.00
24336;BME280;33098;52.400;16.880;2023-03-31T04:36:46;99555.55;;;9.65;100.00
24336;BME280;33098;52.400;16.880;2023-03-31T04:39:17;99550.17;;;9.66;100.00
24336;BME280;33098;52.400;16.880;2023-03-31T04:41:52;99550.27;;;9.67;100.00
24336;BME280;33098;52.400;16.880;2023-03-31T04:44:22;99544.09;;;9.67;100.00
24336;BME280;33098;52.400;16.880;2023-03-31T04:46:49;99542.27;;;9.71;100.00
24336;BME280;33098;52.400;16.880;2023-03-31T04:49:18;99539.55;;;9.70;100.00
24336;BME280;33098;52.400;16.880;2023-03-31T04:51:45;99534.41;;;9.77;100.00
24336;BME280;33098;52.400;16.880;2023-03-31T04:54:17;99532.52;;;9.83;100.00
24336;BME280;33098;52.400;16.880;2023-03-31T04:56:44;99531.38;;;9.80;100.00
24336;BME280;33098;52.400;16.880;2023-03-31T04:59:14;99531.91;;;9.78;100.00
24336;BME280;33098;52.400;16.880;2023-03-31T05:01:41;99533.31;;;9.76;100.00
24336;BME280;33098;52.400;16.880;2023-03-31T05:04:13;99529.70;;;9.77;100.00
24336;BME280;33098;52.400;16.880;2023-03-31T05:06:40;99526.67;;;9.77;100.00
24336;BME280;33098;52.400;16.880;2023-03-31T05:09:07;99523.95;;;9.74;100.00
24336;BME280;33098;52.400;16.880;2023-03-31T05:11:35;99517.79;;;9.77;100.00
24336;BME280;33098;52.400;16.880;2023-03-31T05:14:06;99514.50;;;9.80;100.00
24336;BME280;33098;52.400;16.880;2023-03-31T05:16:33;99520.94;;;9.86;100.00
24336;BME280;33098;52.400;16.880;2023-03-31T05:19:10;99523.02;;;9.82;100.00
24336;BME280;33098;52.400;16.880;2023-03-31T05:21:40;99517.16;;;9.80;100.00
24336;BME280;33098;52.400;16.880;2023-03-31T05:24:09;99517.86;;;9.82;100.00
24336;BME280;33098;52.400;16.880;2023-03-31T05:26:38;99517.38;;;9.86;100.00
24336;BME280;33098;52.400;16.880;2023-03-31T05:29:06;99516.58;;;9.89;100.00
24336;BME280;33098;52.400;16.880;2023-03-31T05:31:36;99513.84;;;9.91;100.00
24336;BME280;33098;52.400;16.880;2023-03-31T05:34:03;99508.19;;;9.97;100.00
24336;BME280;33098;52.400;16.880;2023-03-31T05:36:30;99510.86;;;10.01;100.00
24336;BME280;33098;52.400;16.880;2023-03-31T05:38:57;99507.49;;;10.09;100.00
24336;BME280;33098;52.400;16.880;2023-03-31T05:41:28;99511.17;;;10.09;100.00
24336;BME280;33098;52.400;16.880;2023-03-31T05:43:57;99507.05;;;10.08;100.00
24336;BME280;33098;52.400;16.880;2023-03-31T05:46:25;99504.95;;;10.09;100.00
24336;BME280;33098;52.400;16.880;2023-03-31T05:48:54;99509.98;;;10.14;100.00
24336;BME280;33098;52.400;16.880;2023-03-31T05:51:22;99511.88;;;10.17;100.00
24336;BME280;33098;52.400;16.880;2023-03-31T05:53:49;99513.05;;;10.20;100.00
24336;BME280;33098;52.400;16.880;2023-03-31T05:56:19;99511.25;;;10.24;100.00
24336;BME280;33098;52.400;16.880;2023-03-31T05:58:46;99512.63;;;10.22;100.00
24336;BME280;33098;52.400;16.880;2023-03-31T06:01:15;99515.91;;;10.25;100.00
24336;BME280;33098;52.400;16.880;2023-03-31T06:03:48;99509.42;;;10.32;100.00
24336;BME280;33098;52.400;16.880;2023-03-31T06:06:16;99505.23;;;10.43;100.00
24336;BME280;33098;52.400;16.880;2023-03-31T06:08:47;99506.45;;;10.48;100.00
24336;BME280;33098;52.400;16.880;2023-03-31T06:11:20;99506.20;;;10.41;100.00
24336;BME280;33098;52.400;16.880;2023-03-31T06:13:48;99507.88;;;10.32;100.00
24336;BME280;33098;52.400;16.880;2023-03-31T06:16:16;99503.85;;;10.35;100.00
24336;BME280;33098;52.400;16.880;2023-03-31T06:18:44;99502.55;;;10.40;100.00
24336;BME280;33098;52.400;16.880;2023-03-31T06:21:13;99499.71;;;10.44;100.00
24336;BME280;33098;52.400;16.880;2023-03-31T06:23:43;99498.10;;;10.46;100.00
24336;BME280;33098;52.400;16.880;2023-03-31T06:26:12;99500.45;;;10.49;100.00
24336;BME280;33098;52.400;16.880;2023-03-31T06:28:42;99490.19;;;10.52;100.00
24336;BME280;33098;52.400;16.880;2023-03-31T06:31:12;99491.52;;;10.52;100.00
24336;BME280;33098;52.400;16.880;2023-03-31T06:33:44;99489.19;;;10.52;100.00
24336;BME280;33098;52.400;16.880;2023-03-31T06:36:14;99491.00;;;10.52;100.00
24336;BME280;33098;52.400;16.880;2023-03-31T06:38:44;99485.90;;;10.57;100.00
24336;BME280;33098;52.400;16.880;2023-03-31T06:41:17;99484.90;;;10.61;100.00
24336;BME280;33098;52.400;16.880;2023-03-31T06:43:44;99488.09;;;10.64;100.00
24336;BME280;33098;52.400;16.880;2023-03-31T06:46:15;99482.41;;;10.61;100.00
24336;BME280;33098;52.400;16.880;2023-03-31T06:48:44;99478.66;;;10.64;100.00
24336;BME280;33098;52.400;16.880;2023-03-31T06:51:11;99478.73;;;10.71;100.00
24336;BME280;33098;52.400;16.880;2023-03-31T06:53:39;99475.88;;;10.73;100.00
24336;BME280;33098;52.400;16.880;2023-03-31T06:56:09;99473.68;;;10.76;100.00
24336;BME280;33098;52.400;16.880;2023-03-31T06:58:39;99478.05;;;10.80;100.00
24336;BME280;33098;52.400;16.880;2023-03-31T07:01:06;99481.80;;;10.85;100.00
24336;BME280;33098;52.400;16.880;2023-03-31T07:03:36;99481.73;;;10.82;100.00
24336;BME280;33098;52.400;16.880;2023-03-31T07:06:05;99477.23;;;10.81;100.00
24336;BME280;33098;52.400;16.880;2023-03-31T07:08:32;99471.83;;;10.80;100.00
24336;BME280;33098;52.400;16.880;2023-03-31T07:11:00;99475.35;;;10.86;100.00
24336;BME280;33098;52.400;16.880;2023-03-31T07:13:28;99473.73;;;10.97;100.00
24336;BME280;33098;52.400;16.880;2023-03-31T07:15:56;99475.67;;;11.05;100.00
24336;BME280;33098;52.400;16.880;2023-03-31T07:18:26;99471.77;;;11.12;100.00
24336;BME280;33098;52.400;16.880;2023-03-31T07:21:01;99471.40;;;11.20;100.00
24336;BME280;33098;52.400;16.880;2023-03-31T07:23:31;99473.27;;;11.23;100.00
24336;BME280;33098;52.400;16.880;2023-03-31T07:26:01;99479.84;;;11.21;100.00
24336;BME280;33098;52.400;16.880;2023-03-31T07:28:28;99481.80;;;11.21;100.00
24336;BME280;33098;52.400;16.880;2023-03-31T07:30:56;99479.13;;;11.23;100.00
24336;BME280;33098;52.400;16.880;2023-03-31T07:33:22;99473.52;;;11.37;100.00
24336;BME280;33098;52.400;16.880;2023-03-31T07:35:52;99470.75;;;11.43;100.00
24336;BME280;33098;52.400;16.880;2023-03-31T07:38:25;99464.31;;;11.49;100.00
24336;BME280;33098;52.400;16.880;2023-03-31T07:40:51;99457.19;;;11.56;100.00
24336;BME280;33098;52.400;16.880;2023-03-31T07:43:20;99457.42;;;11.51;100.00
24336;BME280;33098;52.400;16.880;2023-03-31T07:45:51;99453.17;;;11.43;100.00
24336;BME280;33098;52.400;16.880;2023-03-31T07:48:20;99454.56;;;11.40;100.00
24336;BME280;33098;52.400;16.880;2023-03-31T07:50:51;99460.48;;;11.46;100.00
24336;BME280;33098;52.400;16.880;2023-03-31T07:53:26;99461.83;;;11.60;100.00
24336;BME280;33098;52.400;16.880;2023-03-31T07:55:57;99467.19;;;11.67;100.00
24336;BME280;33098;52.400;16.880;2023-03-31T07:58:26;99461.00;;;11.72;100.00
24336;BME280;33098;52.400;16.880;2023-03-31T08:00:54;99453.20;;;11.75;100.00
24336;BME280;33098;52.400;16.880;2023-03-31T08:03:21;99444.30;;;11.81;100.00
24336;BME280;33098;52.400;16.880;2023-03-31T08:05:52;99442.77;;;11.93;100.00
24336;BME280;33098;52.400;16.880;2023-03-31T08:08:20;99447.20;;;12.04;100.00
24336;BME280;33098;52.400;16.880;2023-03-31T08:10:49;99444.55;;;12.09;100.00
24336;BME280;33098;52.400;16.880;2023-03-31T08:13:17;99443.14;;;12.21;100.00
24336;BME280;33098;52.400;16.880;2023-03-31T08:15:46;99437.84;;;12.28;100.00
24336;BME280;33098;52.400;16.880;2023-03-31T08:18:13;99440.32;;;12.28;100.00
24336;BME280;33098;52.400;16.880;2023-03-31T08:20:43;99443.80;;;12.38;100.00
24336;BME280;33098;52.400;16.880;2023-03-31T08:23:12;99439.70;;;12.50;100.00
24336;BME280;33098;52.400;16.880;2023-03-31T08:25:39;99434.48;;;12.55;100.00
24336;BME280;33098;52.400;16.880;2023-03-31T08:28:06;99431.53;;;12.62;99.98
24336;BME280;33098;52.400;16.880;2023-03-31T08:30:37;99428.05;;;12.65;99.45
24336;BME280;33098;52.400;16.880;2023-03-31T08:33:04;99427.30;;;12.70;98.91
24336;BME280;33098;52.400;16.880;2023-03-31T08:35:39;99427.84;;;12.72;97.67
24336;BME280;33098;52.400;16.880;2023-03-31T08:38:06;99425.20;;;12.70;97.40
24336;BME280;33098;52.400;16.880;2023-03-31T08:40:33;99419.24;;;12.74;97.21
24336;BME280;33098;52.400;16.880;2023-03-31T08:43:12;99413.92;;;12.79;96.72
24336;BME280;33098;52.400;16.880;2023-03-31T08:45:45;99409.88;;;12.89;96.92
24336;BME280;33098;52.400;16.880;2023-03-31T08:50:59;99406.70;;;12.97;95.98
24336;BME280;33098;52.400;16.880;2023-03-31T08:53:33;99402.61;;;12.99;94.32
24336;BME280;33098;52.400;16.880;2023-03-31T08:56:14;99401.96;;;13.07;95.05
24336;BME280;33098;52.400;16.880;2023-03-31T08:58:44;99399.61;;;13.29;95.91
24336;BME280;33098;52.400;16.880;2023-03-31T09:07:01;99392.13;;;13.49;93.01
24336;BME280;33098;52.400;16.880;2023-03-31T09:17:52;99387.71;;;13.87;92.88
24336;BME280;33098;52.400;16.880;2023-03-31T09:20:31;99381.28;;;13.99;92.71
24336;BME280;33098;52.400;16.880;2023-03-31T09:23:09;99378.66;;;14.08;92.10
24336;BME280;33098;52.400;16.880;2023-03-31T09:25:39;99371.68;;;14.11;90.75
24336;BME280;33098;52.400;16.880;2023-03-31T09:28:21;99371.46;;;14.10;90.55
24336;BME280;33098;52.400;16.880;2023-03-31T09:30:54;99359.63;;;14.21;90.36
24336;BME280;33098;52.400;16.880;2023-03-31T09:33:28;99356.71;;;14.34;90.13
24336;BME280;33098;52.400;16.880;2023-03-31T09:35:59;99355.68;;;14.43;89.51
24336;BME280;33098;52.400;16.880;2023-03-31T09:38:29;99354.58;;;14.48;88.96
24336;BME280;33098;52.400;16.880;2023-03-31T09:40:57;99347.31;;;14.44;86.97
24336;BME280;33098;52.400;16.880;2023-03-31T09:43:28;99341.34;;;14.46;87.32
24336;BME280;33098;52.400;16.880;2023-03-31T09:45:56;99334.73;;;14.53;87.43
24336;BME280;33098;52.400;16.880;2023-03-31T09:48:33;99328.74;;;14.62;87.49
24336;BME280;33098;52.400;16.880;2023-03-31T09:51:27;99325.88;;;14.78;87.61
24336;BME280;33098;52.400;16.880;2023-03-31T09:56:57;99320.80;;;15.08;86.96
24336;BME280;33098;52.400;16.880;2023-03-31T09:59:33;99322.88;;;15.13;85.53
24336;BME280;33098;52.400;16.880;2023-03-31T10:02:40;99317.80;;;15.11;84.86
24336;BME280;33098;52.400;16.880;2023-03-31T10:05:31;99314.90;;;15.14;84.95
24336;BME280;33098;52.400;16.880;2023-03-31T10:11:05;99303.23;;;15.27;83.64
24336;BME280;33098;52.400;16.880;2023-03-31T10:16:12;99296.79;;;15.43;83.48
24336;BME280;33098;52.400;16.880;2023-03-31T10:18:41;99290.66;;;15.49;82.95
24336;BME280;33098;52.400;16.880;2023-03-31T10:21:44;99289.44;;;15.52;82.87
24336;BME280;33098;52.400;16.880;2023-03-31T10:24:18;99289.04;;;15.62;82.83
24336;BME280;33098;52.400;16.880;2023-03-31T10:26:47;99278.76;;;15.58;81.56
24336;BME280;33098;52.400;16.880;2023-03-31T10:29:39;99270.14;;;15.50;81.41
24336;BME280;33098;52.400;16.880;2023-03-31T10:34:46;99265.39;;;15.53;81.24
24336;BME280;33098;52.400;16.880;2023-03-31T10:37:17;99263.48;;;15.60;81.50
24336;BME280;33098;52.400;16.880;2023-03-31T10:39:45;99261.77;;;15.64;80.79
24336;BME280;33098;52.400;16.880;2023-03-31T10:42:20;99256.71;;;15.67;80.69
24336;BME280;33098;52.400;16.880;2023-03-31T10:47:52;99240.83;;;15.72;79.34
24336;BME280;33098;52.400;16.880;2023-03-31T10:50:32;99230.59;;;15.75;79.23
24336;BME280;33098;52.400;16.880;2023-03-31T10:55:35;99220.55;;;15.89;78.70
24336;BME280;33098;52.400;16.880;2023-03-31T10:58:32;99218.11;;;16.08;79.12
24336;BME280;33098;52.400;16.880;2023-03-31T11:01:18;99223.91;;;16.26;78.19
24336;BME280;33098;52.400;16.880;2023-03-31T11:09:35;99219.35;;;16.34;77.68
24336;BME280;33098;52.400;16.880;2023-03-31T11:12:26;99217.81;;;16.45;76.99
24336;BME280;33098;52.400;16.880;2023-03-31T11:26:05;99207.27;;;16.45;74.37
24336;BME280;33098;52.400;16.880;2023-03-31T11:37:13;99200.75;;;16.03;71.60
24336;BME280;33098;52.400;16.880;2023-03-31T11:42:19;99185.53;;;15.81;72.46
24336;BME280;33098;52.400;16.880;2023-03-31T11:44:56;99184.08;;;15.78;72.78
24336;BME280;33098;52.400;16.880;2023-03-31T11:47:30;99189.18;;;15.77;72.03
24336;BME280;33098;52.400;16.880;2023-03-31T11:50:05;99179.23;;;15.67;72.48
24336;BME280;33098;52.400;16.880;2023-03-31T11:52:40;99176.52;;;15.65;72.72
24336;BME280;33098;52.400;16.880;2023-03-31T11:55:21;99167.06;;;15.65;73.09
24336;BME280;33098;52.400;16.880;2023-03-31T11:58:11;99159.81;;;15.65;73.42
24336;BME280;33098;52.400;16.880;2023-03-31T12:00:45;99154.58;;;15.73;73.95
24336;BME280;33098;52.400;16.880;2023-03-31T12:03:27;99148.83;;;15.72;73.57
24336;BME280;33098;52.400;16.880;2023-03-31T12:06:13;99142.89;;;15.64;73.65
24336;BME280;33098;52.400;16.880;2023-03-31T12:09:01;99142.55;;;15.56;73.83
24336;BME280;33098;52.400;16.880;2023-03-31T12:11:52;99138.50;;;15.43;73.75
24336;BME280;33098;52.400;16.880;2023-03-31T12:14:33;99134.09;;;15.29;73.94
24336;BME280;33098;52.400;16.880;2023-03-31T12:22:37;99124.56;;;14.92;75.31
24336;BME280;33098;52.400;16.880;2023-03-31T12:25:11;99125.75;;;14.79;75.96
24336;BME280;33098;52.400;16.880;2023-03-31T12:27:44;99122.95;;;14.69;76.05
24336;BME280;33098;52.400;16.880;2023-03-31T12:30:26;99113.96;;;14.71;76.35
24336;BME280;33098;52.400;16.880;2023-03-31T12:33:02;99110.42;;;14.78;76.71
24336;BME280;33098;52.400;16.880;2023-03-31T12:35:49;99106.46;;;14.91;76.64
24336;BME280;33098;52.400;16.880;2023-03-31T12:55:04;99091.50;;;14.78;75.92
24336;BME280;33098;52.400;16.880;2023-03-31T12:57:35;99091.00;;;14.78;76.17
24336;BME280;33098;52.400;16.880;2023-03-31T13:02:39;99084.88;;;14.65;76.09
24336;BME280;33098;52.400;16.880;2023-03-31T13:05:43;99078.05;;;14.59;76.36
24336;BME280;33098;52.400;16.880;2023-03-31T13:08:55;99073.38;;;14.53;76.89
24336;BME280;33098;52.400;16.880;2023-03-31T13:16:42;99065.91;;;14.45;78.71
24336;BME280;33098;52.400;16.880;2023-03-31T13:19:11;99056.02;;;14.38;79.06
24336;BME280;33098;52.400;16.880;2023-03-31T13:21:53;99052.75;;;14.44;79.73
24336;BME280;33098;52.400;16.880;2023-03-31T13:24:24;99043.35;;;14.41;79.73
24336;BME280;33098;52.400;16.880;2023-03-31T13:26:53;99037.66;;;14.38;80.16
24336;BME280;33098;52.400;16.880;2023-03-31T13:29:44;99031.71;;;14.41;80.63
24336;BME280;33098;52.400;16.880;2023-03-31T13:32:26;99027.11;;;14.50;81.06
24336;BME280;33098;52.400;16.880;2023-03-31T13:35:19;99024.10;;;14.61;81.26
24336;BME280;33098;52.400;16.880;2023-03-31T13:46:47;99002.43;;;15.23;81.42
24336;BME280;33098;52.400;16.880;2023-03-31T13:52:09;98988.86;;;15.37;80.75
24336;BME280;33098;52.400;16.880;2023-03-31T13:57:33;98985.16;;;15.40;80.37
24336;BME280;33098;52.400;16.880;2023-03-31T14:03:15;98974.02;;;15.48;79.94
24336;BME280;33098;52.400;16.880;2023-03-31T14:08:54;98960.06;;;15.49;79.74
24336;BME280;33098;52.400;16.880;2023-03-31T14:11:28;98957.17;;;15.59;79.51
24336;BME280;33098;52.400;16.880;2023-03-31T14:14:04;98951.71;;;15.61;79.28
24336;BME280;33098;52.400;16.880;2023-03-31T14:16:39;98950.39;;;15.60;78.90
24336;BME280;33098;52.400;16.880;2023-03-31T14:24:40;98942.88;;;15.33;78.17
24336;BME280;33098;52.400;16.880;2023-03-31T14:28:02;98937.86;;;15.20;78.37
24336;BME280;33098;52.400;16.880;2023-03-31T14:33:25;98932.25;;;14.93;80.11
24336;BME280;33098;52.400;16.880;2023-03-31T14:36:12;98927.36;;;14.84;80.83
24336;BME280;33098;52.400;16.880;2023-03-31T14:38:47;98923.29;;;14.82;81.99
24336;BME280;33098;52.400;16.880;2023-03-31T14:41:19;98927.01;;;14.80;82.70
24336;BME280;33098;52.400;16.880;2023-03-31T14:43:49;98925.52;;;14.67;83.13
24336;BME280;33098;52.400;16.880;2023-03-31T14:46:20;98926.08;;;14.61;84.03
24336;BME280;33098;52.400;16.880;2023-03-31T14:48:49;98921.79;;;14.56;84.74
24336;BME280;33098;52.400;16.880;2023-03-31T14:51:25;98917.54;;;14.50;84.96
24336;BME280;33098;52.400;16.880;2023-03-31T14:53:56;98915.73;;;14.43;85.17
24336;BME280;33098;52.400;16.880;2023-03-31T14:56:37;98922.13;;;14.37;85.31
24336;BME280;33098;52.400;16.880;2023-03-31T14:59:07;98921.03;;;14.28;84.93
24336;BME280;33098;52.400;16.880;2023-03-31T15:01:35;98925.48;;;14.10;85.76
24336;BME280;33098;52.400;16.880;2023-03-31T15:04:10;98927.23;;;13.70;89.20
24336;BME280;33098;52.400;16.880;2023-03-31T15:06:46;98917.40;;;13.34;93.31
24336;BME280;33098;52.400;16.880;2023-03-31T15:09:35;98912.72;;;13.08;96.93
24336;BME280;33098;52.400;16.880;2023-03-31T15:12:11;98911.91;;;12.88;99.54
24336;BME280;33098;52.400;16.880;2023-03-31T15:14:47;98909.65;;;12.77;99.73
24336;BME280;33098;52.400;16.880;2023-03-31T15:17:24;98907.21;;;12.78;99.39
24336;BME280;33098;52.400;16.880;2023-03-31T15:19:55;98906.95;;;12.69;98.96
24336;BME280;33098;52.400;16.880;2023-03-31T15:22:25;98906.23;;;12.64;98.56
24336;BME280;33098;52.400;16.880;2023-03-31T15:24:57;98905.86;;;12.68;98.90
24336;BME280;33098;52.400;16.880;2023-03-31T15:27:39;98907.99;;;12.63;98.63
24336;BME280;33098;52.400;16.880;2023-03-31T15:30:16;98902.37;;;12.63;98.65
24336;BME280;33098;52.400;16.880;2023-03-31T15:32:44;98902.28;;;12.65;98.85
24336;BME280;33098;52.400;16.880;2023-03-31T15:35:26;98902.17;;;12.69;99.30
24336;BME280;33098;52.400;16.880;2023-03-31T15:37:56;98901.37;;;12.71;99.57
24336;BME280;33098;52.400;16.880;2023-03-31T15:40:52;98899.80;;;12.74;99.70
24336;BME280;33098;52.400;16.880;2023-03-31T15:43:31;98904.60;;;12.74;99.59
24336;BME280;33098;52.400;16.880;2023-03-31T15:46:03;98896.84;;;12.67;99.88
24336;BME280;33098;52.400;16.880;2023-03-31T15:48:37;98895.76;;;12.64;100.00
24336;BME280;33098;52.400;16.880;2023-03-31T15:54:40;98892.45;;;12.71;100.00
24336;BME280;33098;52.400;16.880;2023-03-31T15:57:08;98889.91;;;12.77;100.00
24336;BME280;33098;52.400;16.880;2023-03-31T15:59:48;98890.30;;;12.78;100.00
24336;BME280;33098;52.400;16.880;2023-03-31T16:02:23;98886.10;;;12.82;100.00
24336;BME280;33098;52.400;16.880;2023-03-31T16:04:55;98883.70;;;12.86;100.00